createdAt,value
2023-01-26T01:28:01.955Z,21.02
2023-01-26T01:30:34.590Z,21.33
2023-01-26T01:33:07.335Z,21.00
2023-01-26T01:35:39.959Z,20.90
2023-01-26T01:38:12.324Z,22.45
2023-01-26T01:40:45.415Z,22.80
2023-01-26T01:43:17.922Z,23.25
2023-01-26T01:45:51.960Z,23.05
2023-01-26T01:48:59.008Z,23.92
2023-01-26T01:51:41.164Z,22.90
2023-01-26T01:54:18.192Z,22.05
2023-01-26T01:56:53.895Z,24.40
2023-01-26T01:59:27.805Z,25.43
2023-01-26T02:02:00.312Z,25.48
2023-01-26T02:04:33.063Z,24.77
2023-01-26T02:07:07.194Z,26.12
2023-01-26T02:09:59.326Z,25.65
2023-01-26T02:12:53.511Z,25.45
2023-01-26T02:15:25.906Z,26.33
2023-01-26T02:17:58.599Z,25.82
2023-01-26T02:20:38.655Z,28.38
2023-01-26T02:23:41.615Z,25.20
2023-01-26T02:26:21.213Z,27.35
2023-01-26T02:28:55.748Z,30.05
2023-01-26T02:31:28.413Z,28.47
2023-01-26T02:34:00.980Z,28.40
2023-01-26T02:36:59.279Z,26.97
2023-01-26T02:39:54.952Z,28.52
2023-01-26T02:42:39.502Z,27.17
2023-01-26T02:45:16.591Z,27.13
2023-01-26T02:47:49.705Z,25.62
2023-01-26T02:50:22.736Z,23.32
2023-01-26T02:52:55.258Z,22.30
2023-01-26T02:55:28.982Z,23.83
2023-01-26T02:58:05.019Z,22.17
2023-01-26T03:00:40.208Z,22.98
2023-01-26T03:03:18.967Z,23.20
2023-01-26T03:05:51.969Z,23.38
2023-01-26T03:08:24.511Z,21.70
2023-01-26T03:10:57.126Z,22.48
2023-01-26T03:13:29.689Z,24.00
2023-01-26T03:16:04.879Z,22.70
2023-01-26T03:18:56.512Z,24.82
2023-01-26T03:21:46.713Z,23.90
2023-01-26T03:24:37.106Z,22.60
2023-01-26T03:27:29.856Z,24.23
2023-01-26T03:30:04.117Z,24.65
2023-01-26T03:32:37.661Z,24.07
2023-01-26T03:35:13.216Z,26.33
2023-01-26T03:37:46.185Z,25.77
2023-01-26T03:40:39.238Z,28.87
2023-01-26T03:43:29.774Z,25.95
2023-01-26T03:46:25.362Z,28.35
2023-01-26T03:49:16.739Z,27.85
2023-01-26T03:52:08.387Z,24.92
2023-01-26T03:54:59.675Z,26.15
2023-01-26T03:57:32.056Z,26.62
2023-01-26T04:00:04.990Z,29.00
2023-01-26T04:02:57.223Z,29.45
2023-01-26T04:05:47.796Z,28.25
2023-01-26T04:08:27.896Z,28.30
2023-01-26T04:11:02.072Z,26.45
2023-01-26T04:13:52.528Z,28.12
2023-01-26T04:16:47.368Z,27.87
2023-01-26T04:19:38.057Z,26.80
2023-01-26T04:22:12.973Z,29.00
2023-01-26T04:24:47.831Z,30.40
2023-01-26T04:27:20.915Z,29.20
2023-01-26T04:29:53.595Z,28.73
2023-01-26T04:32:27.889Z,28.42
2023-01-26T04:35:00.412Z,30.05
2023-01-26T04:37:33.706Z,29.65
2023-01-26T04:40:29.140Z,28.77
2023-01-26T04:43:01.984Z,29.30
2023-01-26T04:45:34.501Z,31.10
2023-01-26T04:48:08.240Z,30.88
2023-01-26T04:50:40.664Z,29.18
2023-01-26T04:53:13.309Z,31.00
2023-01-26T04:55:47.030Z,33.00
2023-01-26T04:58:19.628Z,36.90
2023-01-26T05:00:59.325Z,37.65
2023-01-26T05:03:31.805Z,38.92
2023-01-26T05:06:04.883Z,40.00
2023-01-26T05:08:38.694Z,37.20
2023-01-26T05:11:11.503Z,37.08
2023-01-26T05:13:55.122Z,36.00
2023-01-26T05:19:08.912Z,29.87
2023-01-26T05:21:43.081Z,27.73
2023-01-26T05:24:17.157Z,28.15
2023-01-26T05:27:22.575Z,25.97
2023-01-26T05:29:58.637Z,24.75
2023-01-26T05:35:03.367Z,26.37
2023-01-26T05:37:36.952Z,26.75
2023-01-26T05:40:30.524Z,73.57
2023-01-26T05:43:03.304Z,29.40
2023-01-26T05:45:49.644Z,29.85
2023-01-26T05:48:22.841Z,27.65
2023-01-26T05:50:58.781Z,26.02
2023-01-26T05:53:31.394Z,26.93
2023-01-26T05:56:04.069Z,26.48
2023-01-26T05:58:38.877Z,27.22
2023-01-26T06:01:11.627Z,28.73
2023-01-26T06:03:45.765Z,28.45
2023-01-26T06:06:18.551Z,26.60
2023-01-26T06:08:55.405Z,27.50
2023-01-26T06:11:38.043Z,29.52
2023-01-26T06:14:15.141Z,29.25
2023-01-26T06:16:47.692Z,31.70
2023-01-26T06:19:21.067Z,31.35
2023-01-26T06:21:55.628Z,36.75
2023-01-26T06:24:28.751Z,32.60
2023-01-26T06:27:01.300Z,31.97
2023-01-26T06:29:34.794Z,31.27
2023-01-26T06:32:08.019Z,30.52
2023-01-26T06:34:41.056Z,30.20
2023-01-26T06:37:14.154Z,32.35
2023-01-26T06:39:47.080Z,34.75
2023-01-26T06:42:19.572Z,35.23
2023-01-26T06:44:52.798Z,31.42
2023-01-26T06:47:25.493Z,32.25
2023-01-26T06:49:58.090Z,33.58
2023-01-26T06:52:34.317Z,32.28
2023-01-26T06:55:23.490Z,32.97
2023-01-26T06:58:06.714Z,31.82
2023-01-26T07:00:41.600Z,32.48
2023-01-26T07:03:22.043Z,31.48
2023-01-26T07:05:54.521Z,32.95
2023-01-26T07:08:27.783Z,30.70
2023-01-26T07:11:00.391Z,30.97
2023-01-26T07:13:33.271Z,29.23
2023-01-26T07:16:09.133Z,29.92
2023-01-26T07:18:42.339Z,29.45
2023-01-26T07:21:19.634Z,26.70
2023-01-26T07:23:53.427Z,30.43
2023-01-26T07:28:58.298Z,28.62
2023-01-26T07:31:31.448Z,28.83
2023-01-26T07:34:04.139Z,29.35
2023-01-26T07:36:36.593Z,29.82
2023-01-26T07:39:09.991Z,30.27
2023-01-26T07:41:42.413Z,28.00
2023-01-26T07:46:48.613Z,27.50
2023-01-26T07:49:21.553Z,28.70
2023-01-26T07:51:54.333Z,29.37
2023-01-26T07:54:26.735Z,30.10
2023-01-26T07:56:59.978Z,26.52
2023-01-26T07:59:33.039Z,28.55
2023-01-26T08:02:05.499Z,28.50
2023-01-26T08:04:39.362Z,27.30
2023-01-26T08:07:12.168Z,27.52
2023-01-26T08:09:44.570Z,29.18
2023-01-26T08:12:17.090Z,25.57
2023-01-26T08:14:49.997Z,26.90
2023-01-26T08:17:22.484Z,25.12
2023-01-26T08:19:54.899Z,24.92
2023-01-26T08:22:27.816Z,25.27
2023-01-26T08:25:00.191Z,25.32
2023-01-26T08:27:33.158Z,26.37
2023-01-26T08:30:07.016Z,25.80
2023-01-26T08:35:12.266Z,24.32
2023-01-26T08:37:44.727Z,25.72
2023-01-26T08:40:17.729Z,25.15
2023-01-26T08:42:50.189Z,25.05
2023-01-26T08:45:22.807Z,22.93
2023-01-26T08:47:55.962Z,24.02
2023-01-26T08:50:28.965Z,23.22
2023-01-26T08:53:01.302Z,21.05
2023-01-26T08:55:35.549Z,23.67
2023-01-26T08:58:08.624Z,23.75
2023-01-26T09:00:41.275Z,23.47
2023-01-26T09:03:14.272Z,21.50
2023-01-26T09:05:47.184Z,23.62
2023-01-26T09:08:20.008Z,21.23
2023-01-26T09:11:06.399Z,21.25
2023-01-26T09:13:39.307Z,22.45
2023-01-26T09:16:18.621Z,23.20
2023-01-26T09:18:57.021Z,20.60
2023-01-26T09:21:29.568Z,22.48
2023-01-26T09:24:02.667Z,23.83
2023-01-26T09:26:36.872Z,21.02
2023-01-26T09:29:10.696Z,21.02
2023-01-26T09:31:43.263Z,22.95
2023-01-26T09:34:16.457Z,22.20
2023-01-26T09:36:48.852Z,22.75
2023-01-26T09:39:21.483Z,24.40
2023-01-26T09:42:05.215Z,22.70
2023-01-26T09:44:42.844Z,25.12
2023-01-26T09:47:34.986Z,23.07
2023-01-26T09:50:17.392Z,23.73
2023-01-26T09:53:01.598Z,23.62
2023-01-26T09:55:34.082Z,22.80
2023-01-26T09:58:17.015Z,24.30
2023-01-26T10:00:54.349Z,21.62
2023-01-26T10:03:48.660Z,22.58
2023-01-26T10:06:41.678Z,21.62
2023-01-26T10:09:26.102Z,23.10
2023-01-26T10:12:06.012Z,21.33
2023-01-26T10:14:49.642Z,22.62
2023-01-26T10:17:30.088Z,23.77
2023-01-26T10:20:31.620Z,20.57
2023-01-26T10:23:30.036Z,21.07
2023-01-26T10:26:13.224Z,20.17
2023-01-26T10:28:47.723Z,19.67
2023-01-26T10:31:23.399Z,20.40
2023-01-26T10:34:18.007Z,19.12
2023-01-26T10:36:50.612Z,20.50
2023-01-26T10:39:24.379Z,20.75
2023-01-26T10:42:02.247Z,20.50
2023-01-26T10:44:39.665Z,22.50
2023-01-26T10:47:21.598Z,20.97
2023-01-26T10:49:54.332Z,21.35
2023-01-26T10:52:26.816Z,20.88
2023-01-26T10:55:20.202Z,18.32
2023-01-26T10:57:52.580Z,20.32
2023-01-26T11:00:33.909Z,19.95
2023-01-26T11:03:16.885Z,19.15
2023-01-26T11:05:53.732Z,18.30
2023-01-26T11:08:53.676Z,18.15
2023-01-26T11:11:28.586Z,17.15
2023-01-26T11:14:19.439Z,19.98
2023-01-26T11:17:11.810Z,19.20
2023-01-26T11:19:58.393Z,20.37
2023-01-26T11:22:50.895Z,20.05
2023-01-26T11:25:53.263Z,16.32
2023-01-26T11:29:13.974Z,15.00
2023-01-26T11:32:00.236Z,13.62
2023-01-26T11:34:46.379Z,14.47
2023-01-26T11:38:04.734Z,12.33
2023-01-26T11:41:17.854Z,13.00
2023-01-26T11:44:28.397Z,11.18
2023-01-26T11:47:05.734Z,12.30
2023-01-26T11:50:16.273Z,12.85
2023-01-26T11:53:26.231Z,12.65
2023-01-26T11:56:21.369Z,12.63
2023-01-26T11:59:13.096Z,13.75
2023-01-26T12:01:59.574Z,13.32
2023-01-26T12:04:36.728Z,13.18
2023-01-26T12:07:22.649Z,13.15
2023-01-26T12:09:55.118Z,14.35
2023-01-26T12:12:45.717Z,14.78
2023-01-26T12:15:21.699Z,14.13
2023-01-26T12:18:16.964Z,15.35
2023-01-26T12:20:55.278Z,15.88
2023-01-26T12:23:47.390Z,14.98
2023-01-26T12:26:22.805Z,14.75
2023-01-26T12:29:23.043Z,14.15
2023-01-26T12:32:14.311Z,15.23
2023-01-26T12:34:47.067Z,15.03
2023-01-26T12:37:48.160Z,13.93
2023-01-26T12:41:06.832Z,15.15
2023-01-26T12:44:11.646Z,13.85
2023-01-26T12:46:48.262Z,13.70
2023-01-26T12:50:09.946Z,24.47
2023-01-26T12:52:56.363Z,15.43
2023-01-26T12:55:42.497Z,15.63
2023-01-26T12:58:33.710Z,16.10
2023-01-26T13:01:15.088Z,15.08
2023-01-26T13:03:58.671Z,14.98
2023-01-26T13:06:31.588Z,14.85
2023-01-26T13:09:34.508Z,15.08
2023-01-26T13:12:08.772Z,15.63
2023-01-26T13:14:46.067Z,17.98
2023-01-26T13:17:24.207Z,16.55
2023-01-26T13:20:00.392Z,16.57
2023-01-26T13:22:41.650Z,16.93
2023-01-26T13:25:41.962Z,16.02
2023-01-26T13:28:15.207Z,16.30
2023-01-26T13:30:48.016Z,16.90
2023-01-26T13:33:25.219Z,17.37
2023-01-26T13:35:57.724Z,16.25
2023-01-26T13:38:49.306Z,17.80
2023-01-26T13:41:22.663Z,17.25
2023-01-26T13:44:10.965Z,16.07
2023-01-26T13:46:47.948Z,16.57
2023-01-26T13:49:40.736Z,15.93
2023-01-26T13:52:25.624Z,15.08
2023-01-26T13:54:59.209Z,15.65
2023-01-26T13:57:32.180Z,15.60
2023-01-26T14:00:05.176Z,15.55
2023-01-26T14:02:38.991Z,16.00
2023-01-26T14:05:23.961Z,15.60
2023-01-26T14:10:28.114Z,14.63
2023-01-26T14:13:01.351Z,16.27
2023-01-26T14:15:35.239Z,16.25
2023-01-26T14:18:09.823Z,16.20
2023-01-26T14:20:42.628Z,16.12
2023-01-26T14:23:19.839Z,15.23
2023-01-26T14:26:04.621Z,17.92
2023-01-26T14:28:40.833Z,15.95
2023-01-26T14:31:23.923Z,16.35
2023-01-26T14:34:00.548Z,16.07
2023-01-26T14:36:34.794Z,16.75
2023-01-26T14:39:20.397Z,16.23
2023-01-26T14:41:53.368Z,18.35
2023-01-26T14:44:27.718Z,16.62
2023-01-26T14:47:10.946Z,18.62
2023-01-26T14:50:04.865Z,17.82
2023-01-26T14:52:41.648Z,20.45
2023-01-26T14:55:30.617Z,18.98
2023-01-26T14:58:04.167Z,18.73
2023-01-26T15:00:37.970Z,20.37
2023-01-26T15:03:36.471Z,21.85
2023-01-26T15:06:20.619Z,20.48
2023-01-26T15:09:09.151Z,20.92
2023-01-26T15:11:59.756Z,21.62
2023-01-26T15:14:50.483Z,20.70
2023-01-26T15:17:36.217Z,22.93
2023-01-26T15:20:29.832Z,24.45
2023-01-26T15:23:02.149Z,22.55
2023-01-26T15:25:34.733Z,22.58
2023-01-26T15:28:08.919Z,24.15
2023-01-26T15:30:41.561Z,23.67
2023-01-26T15:33:40.404Z,23.77
2023-01-26T15:36:29.307Z,24.18
2023-01-26T15:39:16.530Z,24.43
2023-01-26T15:42:13.636Z,23.07
2023-01-26T15:44:46.085Z,24.50
2023-01-26T15:47:18.587Z,24.07
2023-01-26T15:49:51.145Z,23.70
2023-01-26T15:52:28.372Z,22.55
2023-01-26T15:55:01.407Z,23.05
2023-01-26T15:57:34.338Z,22.35
2023-01-26T16:00:08.018Z,22.37
2023-01-26T16:02:41.398Z,21.95
2023-01-26T16:05:19.284Z,21.85
2023-01-26T16:20:43.466Z,22.87
2023-01-26T16:23:28.843Z,21.35
2023-01-26T16:26:01.667Z,21.60
2023-01-26T16:28:35.186Z,21.93
2023-01-26T16:31:16.332Z,21.87
2023-01-26T16:33:49.856Z,22.67
2023-01-26T16:36:23.263Z,22.32
2023-01-26T16:38:56.013Z,22.37
2023-01-26T16:41:30.888Z,21.68
2023-01-26T16:44:04.091Z,22.07
2023-01-26T16:46:36.614Z,21.55
2023-01-26T16:49:12.485Z,23.38
2023-01-26T16:51:45.132Z,22.35
2023-01-26T16:54:17.986Z,22.45
2023-01-26T16:56:50.418Z,23.27
2023-01-26T16:59:23.226Z,21.15
2023-01-26T17:01:56.266Z,22.40
2023-01-26T17:04:28.816Z,20.65
2023-01-26T17:07:01.218Z,21.17
2023-01-26T17:09:34.073Z,22.73
2023-01-26T17:12:07.839Z,21.77
2023-01-26T17:14:40.459Z,22.77
2023-01-26T17:17:13.296Z,21.40
2023-01-26T17:19:46.214Z,21.05
2023-01-26T17:22:19.497Z,22.10
2023-01-26T17:24:52.098Z,20.77
2023-01-26T17:27:27.644Z,21.95
2023-01-26T17:30:04.897Z,21.50
2023-01-26T17:32:37.882Z,21.60
2023-01-26T17:35:12.841Z,22.32
2023-01-26T17:37:45.952Z,23.27
2023-01-26T17:40:19.502Z,22.60
2023-01-26T17:42:52.437Z,21.02
2023-01-26T17:45:26.040Z,21.97
2023-01-26T17:47:58.954Z,22.90
2023-01-26T17:50:31.546Z,22.07
2023-01-26T17:53:04.460Z,21.68
2023-01-26T17:55:38.595Z,21.42
2023-01-26T17:58:11.823Z,22.77
2023-01-26T18:00:45.729Z,20.72
2023-01-26T18:03:20.676Z,22.87
2023-01-26T18:08:26.047Z,19.92
2023-01-26T18:11:00.793Z,21.60
2023-01-26T18:13:33.652Z,22.70
2023-01-26T18:16:11.874Z,21.20
2023-01-26T18:18:44.876Z,21.75
2023-01-26T18:21:22.756Z,20.68
2023-01-26T18:24:01.636Z,21.65
2023-01-26T18:26:38.340Z,22.50
2023-01-26T18:29:11.688Z,22.02
2023-01-26T18:31:44.250Z,22.37
2023-01-26T18:34:18.466Z,24.25
2023-01-26T18:36:52.013Z,24.27
2023-01-26T18:39:24.626Z,21.50
2023-01-26T18:41:57.771Z,22.10
2023-01-26T18:44:30.105Z,22.37
2023-01-26T18:47:02.643Z,22.37
2023-01-26T18:49:35.910Z,22.13
2023-01-26T18:52:09.556Z,22.70
2023-01-26T18:54:42.846Z,21.80
2023-01-26T18:57:15.554Z,22.50
2023-01-26T18:59:48.341Z,20.05
2023-01-26T19:02:21.153Z,22.32
2023-01-26T19:04:55.238Z,23.32
2023-01-26T19:07:28.465Z,20.77
2023-01-26T19:10:00.789Z,21.27
2023-01-26T19:12:33.707Z,22.32
2023-01-26T19:15:07.183Z,22.30
2023-01-26T19:17:42.040Z,21.73
2023-01-26T19:20:15.316Z,21.30
2023-01-26T19:22:51.210Z,20.40
2023-01-26T19:25:26.071Z,21.50
2023-01-26T19:28:00.301Z,22.27
2023-01-26T19:30:33.444Z,21.05
2023-01-26T19:33:23.967Z,20.72
2023-01-26T19:35:56.989Z,20.70
2023-01-26T19:38:30.964Z,20.30
2023-01-26T19:41:03.835Z,22.70
2023-01-26T19:43:36.507Z,22.17
2023-01-26T19:46:11.621Z,21.57
2023-01-26T19:48:44.461Z,22.73
2023-01-26T19:51:25.144Z,21.35
2023-01-26T19:53:59.625Z,22.25
2023-01-26T19:56:36.367Z,21.87
2023-01-26T19:59:22.496Z,21.55
2023-01-26T20:01:55.374Z,21.93
2023-01-26T20:04:28.022Z,21.50
2023-01-26T20:07:02.842Z,22.32
2023-01-26T20:09:36.074Z,21.17
2023-01-26T20:12:10.693Z,20.75
2023-01-26T20:14:43.822Z,22.20
2023-01-26T20:17:17.037Z,23.15
2023-01-26T20:19:49.670Z,23.10
2023-01-26T20:22:24.119Z,22.65
2023-01-26T20:24:56.624Z,22.05
2023-01-26T20:27:30.298Z,22.05
2023-01-26T20:30:02.875Z,23.13
2023-01-26T20:32:35.755Z,23.12
2023-01-26T20:35:09.516Z,21.75
2023-01-26T20:37:42.293Z,22.17
2023-01-26T20:40:15.201Z,21.37
2023-01-26T20:42:50.074Z,22.50
2023-01-26T20:45:23.533Z,21.57
2023-01-26T20:47:55.980Z,22.00
2023-01-26T20:50:30.051Z,22.30
2023-01-26T20:53:02.661Z,22.58
2023-01-26T20:55:35.591Z,22.07
2023-01-26T20:58:08.301Z,21.27
2023-01-26T21:00:41.008Z,22.65
2023-01-26T21:03:13.932Z,21.95
2023-01-26T21:05:46.925Z,22.35
2023-01-26T21:08:19.551Z,21.90
2023-01-26T21:10:52.975Z,22.35
2023-01-26T21:13:27.518Z,20.88
2023-01-26T21:16:00.617Z,20.75
2023-01-26T21:18:33.216Z,21.62
2023-01-26T21:21:07.742Z,22.75
2023-01-26T21:23:40.657Z,21.95
2023-01-26T21:26:16.378Z,22.10
2023-01-26T21:28:55.829Z,21.80
2023-01-26T21:31:31.089Z,20.50
2023-01-26T21:34:03.704Z,21.33
2023-01-26T21:36:36.794Z,22.05
2023-01-26T21:39:12.439Z,23.75
2023-01-26T21:41:57.555Z,21.02
2023-01-26T21:44:35.704Z,21.35
2023-01-26T21:47:08.417Z,21.12
2023-01-26T21:49:40.969Z,23.73
2023-01-26T21:52:31.286Z,22.30
2023-01-26T21:55:04.410Z,20.77
2023-01-26T21:57:54.587Z,20.97
2023-01-26T22:00:28.094Z,20.77
2023-01-26T22:03:00.900Z,20.95
2023-01-26T22:05:35.186Z,20.52
2023-01-26T22:08:09.429Z,20.97
2023-01-26T22:10:42.268Z,20.35
2023-01-26T22:13:15.651Z,20.10
2023-01-26T22:15:48.136Z,20.12
2023-01-26T22:18:21.444Z,21.45
2023-01-26T22:20:55.680Z,21.07
2023-01-26T22:26:00.644Z,22.02
2023-01-26T22:28:33.576Z,21.93
2023-01-26T22:31:07.907Z,21.00
2023-01-26T22:33:40.360Z,22.47
2023-01-26T22:36:14.732Z,22.32
2023-01-26T22:38:47.560Z,22.45
2023-01-26T22:41:22.691Z,21.23
2023-01-26T22:43:58.134Z,21.48
2023-01-26T22:46:31.892Z,22.58
2023-01-26T22:49:05.173Z,22.22
2023-01-26T22:51:38.427Z,21.62
2023-01-26T22:54:10.882Z,22.15
2023-01-26T22:56:43.444Z,21.93
2023-01-26T22:59:15.935Z,23.55
2023-01-26T23:01:49.465Z,21.77
2023-01-26T23:04:22.439Z,22.98
2023-01-26T23:06:55.129Z,24.55
2023-01-26T23:09:27.606Z,22.22
2023-01-26T23:12:07.139Z,22.45
2023-01-26T23:14:39.712Z,22.58
2023-01-26T23:17:14.407Z,21.60
2023-01-26T23:19:49.671Z,24.52
2023-01-26T23:22:23.915Z,21.62
2023-01-26T23:25:14.958Z,23.83
2023-01-26T23:27:49.309Z,20.85
2023-01-26T23:30:22.790Z,22.70
2023-01-26T23:32:55.190Z,20.80
2023-01-26T23:35:27.762Z,21.95
2023-01-26T23:38:01.867Z,20.52
2023-01-26T23:40:40.485Z,20.88
2023-01-26T23:43:17.134Z,19.67
2023-01-26T23:45:48.286Z,19.50
2023-01-26T23:48:21.839Z,20.65
2023-01-26T23:51:22.267Z,19.77
2023-01-26T23:53:56.046Z,19.62
2023-01-26T23:56:28.958Z,19.48
2023-01-26T23:59:01.917Z,19.50
